Time;durP1;ratioP1;P1;durP2;ratioP2;P2;SDS_P1;SDS_P2;PMS_P1;PMS_P2;Temp;Humidity;BMP_temperature;BMP_pressure;BME280_temperature;BME280_humidity;BME280_pressure;Samples;Min_cycle;Max_cycle;Signal;HPM_P1;HPM_P2
2023/04/06 00:02:24;;;;;;;;;;;6.60;58.00;;;;;;5078028;28;19951;-37
2023/04/06 00:04:49;;;;;;;;;;;6.60;58.10;;;;;;5078150;28;20008;-40
2023/04/06 00:07:15;;;;;;;;;;;6.50;58.00;;;;;;5078119;28;19974;-38
2023/04/06 00:09:40;;;;;;;;;;;6.60;58.10;;;;;;5077850;28;19913;-38
2023/04/06 00:12:06;;;;;;;;;;;6.50;58.00;;;;;;5077991;28;19959;-40
2023/04/06 00:14:31;;;;;;;;;;;6.50;58.10;;;;;;5078030;28;19973;-39
2023/04/06 00:16:57;;;;;;;;;;;6.50;58.20;;;;;;5077901;28;19912;-41
2023/04/06 00:19:22;;;;;;;;;;;6.50;58.20;;;;;;5078056;28;19948;-40
2023/04/06 00:21:48;;;;;;;;;;;6.50;58.20;;;;;;5077812;28;19919;-38
2023/04/06 00:24:13;;;;;;;;;;;6.50;58.20;;;;;;5077738;28;19920;-38
2023/04/06 00:26:39;;;;;;;;;;;6.40;58.20;;;;;;5077731;28;20000;-38
2023/04/06 00:29:04;;;;;;;;;;;6.40;58.20;;;;;;5077837;28;20333;-37
2023/04/06 00:31:30;;;;;;;;;;;6.40;58.30;;;;;;5077739;28;20396;-36
2023/04/06 00:33:55;;;;;;;;;;;6.40;58.30;;;;;;5076445;28;19916;-38
2023/04/06 00:36:21;;;;;;;;;;;6.40;58.40;;;;;;5077714;28;19912;-37
2023/04/06 00:38:46;;;;;;;;;;;6.40;58.40;;;;;;5077631;28;20303;-38
2023/04/06 00:41:12;;;;;;;;;;;6.30;58.50;;;;;;5077681;28;20325;-36
2023/04/06 00:43:38;;;;;;;;;;;6.30;58.50;;;;;;5077709;28;19912;-38
2023/04/06 00:46:03;;;;;;;;;;;6.20;58.50;;;;;;5075681;28;19912;-41
2023/04/06 00:48:30;;;;;;;;;;;6.30;58.70;;;;;;5074504;28;19916;-41
2023/04/06 00:50:57;;;;;;;;;;;6.20;58.70;;;;;;5074386;28;20364;-37
2023/04/06 00:53:22;;;;;;;;;;;6.20;58.70;;;;;;5074385;28;19912;-36
2023/04/06 00:55:48;;;;;;;;;;;6.20;58.80;;;;;;5074331;28;19912;-38
2023/04/06 00:58:13;;;;;;;;;;;6.20;58.90;;;;;;5074315;28;19919;-36
2023/04/06 01:00:39;;;;;;;;;;;6.20;58.90;;;;;;5074350;28;19917;-39
2023/04/06 01:03:06;;;;;;;;;;;6.10;59.00;;;;;;5074158;28;20284;-39
2023/04/06 01:05:33;;;;;;;;;;;6.10;59.00;;;;;;5074267;28;19912;-38
2023/04/06 01:07:59;;;;;;;;;;;6.10;59.10;;;;;;5072846;28;19919;-39
2023/04/06 01:10:25;;;;;;;;;;;6.10;59.10;;;;;;5074003;28;19916;-36
2023/04/06 01:12:50;;;;;;;;;;;6.00;59.10;;;;;;5074508;28;19943;-37
2023/04/06 01:15:16;;;;;;;;;;;6.00;59.20;;;;;;5073998;28;20368;-38
2023/04/06 01:17:41;;;;;;;;;;;6.00;59.30;;;;;;5073999;28;19958;-37
2023/04/06 01:20:07;;;;;;;;;;;5.90;59.30;;;;;;5073871;28;19912;-38
2023/04/06 01:22:32;;;;;;;;;;;5.90;59.40;;;;;;5072622;28;20367;-38
2023/04/06 01:24:58;;;;;;;;;;;5.90;59.50;;;;;;5073888;28;19921;-39
2023/04/06 01:27:26;;;;;;;;;;;5.90;59.50;;;;;;5073764;28;19912;-37
2023/04/06 01:29:51;;;;;;;;;;;5.90;59.60;;;;;;5073755;28;20383;-39
2023/04/06 01:32:17;;;;;;;;;;;5.90;59.60;;;;;;5073578;28;19920;-39
2023/04/06 01:34:42;;;;;;;;;;;5.80;59.60;;;;;;5073677;28;19915;-37
2023/04/06 01:37:08;;;;;;;;;;;5.80;59.70;;;;;;5073590;28;19923;-38
2023/04/06 01:39:33;;;;;;;;;;;5.80;59.70;;;;;;5072137;28;19915;-39
2023/04/06 01:41:59;;;;;;;;;;;5.80;59.80;;;;;;5073649;28;20397;-39
2023/04/06 01:44:25;;;;;;;;;;;5.80;59.80;;;;;;5073516;28;19916;-39
2023/04/06 01:46:50;;;;;;;;;;;5.80;59.90;;;;;;5073495;28;19962;-39
2023/04/06 01:49:16;;;;;;;;;;;5.80;60.00;;;;;;5073366;28;19908;-36
2023/04/06 01:51:41;;;;;;;;;;;5.70;60.00;;;;;;5073163;28;19963;-39
2023/04/06 01:54:07;;;;;;;;;;;5.70;60.10;;;;;;5073160;28;19909;-38
2023/04/06 01:56:32;;;;;;;;;;;5.70;60.20;;;;;;5073153;28;19909;-38
2023/04/06 01:58:57;;;;;;;;;;;5.60;60.20;;;;;;5072958;28;19908;-39
2023/04/06 02:01:23;;;;;;;;;;;5.60;60.20;;;;;;5072988;28;19909;-37
2023/04/06 02:03:48;;;;;;;;;;;5.60;60.40;;;;;;5073166;28;20368;-39
2023/04/06 02:06:14;;;;;;;;;;;5.60;60.50;;;;;;5072971;28;19908;-37
2023/04/06 02:08:40;;;;;;;;;;;5.60;61.20;;;;;;5072685;28;19913;-39
2023/04/06 02:11:05;;;;;;;;;;;5.60;60.60;;;;;;5071316;28;19912;-39
2023/04/06 02:13:31;;;;;;;;;;;5.50;60.60;;;;;;5072716;28;19915;-38
2023/04/06 02:15:57;;;;;;;;;;;5.50;60.70;;;;;;5073077;28;19992;-37
2023/04/06 02:18:22;;;;;;;;;;;5.50;60.80;;;;;;5073110;28;20387;-38
2023/04/06 02:20:47;;;;;;;;;;;5.50;60.90;;;;;;5072679;28;19916;-39
2023/04/06 02:23:13;;;;;;;;;;;5.50;61.10;;;;;;5072610;28;19943;-37
2023/04/06 02:25:39;;;;;;;;;;;5.50;61.20;;;;;;5072434;28;20009;-39
2023/04/06 02:28:05;;;;;;;;;;;5.50;61.30;;;;;;5072571;28;20053;-37
2023/04/06 02:30:32;;;;;;;;;;;5.40;61.40;;;;;;5072509;28;19912;-40
2023/04/06 02:32:59;;;;;;;;;;;5.40;61.50;;;;;;5071204;28;19996;-39
2023/04/06 02:35:24;;;;;;;;;;;5.40;61.50;;;;;;5072426;28;19931;-39
2023/04/06 02:37:50;;;;;;;;;;;5.40;61.60;;;;;;5072386;28;20363;-40
2023/04/06 02:40:15;;;;;;;;;;;5.50;61.60;;;;;;5072292;28;19947;-38
2023/04/06 02:42:41;;;;;;;;;;;5.40;61.60;;;;;;5072206;28;20495;-39
2023/04/06 02:45:07;;;;;;;;;;;5.50;61.70;;;;;;5072340;28;19977;-37
2023/04/06 02:47:33;;;;;;;;;;;5.50;61.70;;;;;;5072178;28;20006;-37
2023/04/06 02:49:58;;;;;;;;;;;5.50;61.70;;;;;;5072490;28;19908;-39
2023/04/06 02:52:24;;;;;;;;;;;5.50;61.70;;;;;;5072155;28;20404;-38
2023/04/06 02:54:50;;;;;;;;;;;5.50;61.70;;;;;;5072175;28;20372;-40
2023/04/06 02:57:16;;;;;;;;;;;5.50;61.70;;;;;;5072664;28;19965;-39
2023/04/06 02:59:42;;;;;;;;;;;5.60;61.80;;;;;;5072138;28;20239;-38
2023/04/06 03:02:07;;;;;;;;;;;5.60;61.70;;;;;;5071989;28;19915;-39
2023/04/06 03:04:33;;;;;;;;;;;5.60;61.70;;;;;;5071973;28;20394;-38
2023/04/06 03:06:58;;;;;;;;;;;5.60;61.70;;;;;;5071885;28;19908;-39
2023/04/06 03:09:24;;;;;;;;;;;5.60;61.70;;;;;;5071400;28;19985;-39
2023/04/06 03:11:49;;;;;;;;;;;5.60;61.70;;;;;;5071810;28;19916;-40
2023/04/06 03:14:17;;;;;;;;;;;5.70;61.70;;;;;;5071982;28;19916;-38
2023/04/06 03:16:42;;;;;;;;;;;5.70;61.70;;;;;;5072098;28;19909;-39
2023/04/06 03:19:08;;;;;;;;;;;5.70;61.60;;;;;;5071970;28;19999;-38
2023/04/06 03:21:33;;;;;;;;;;;5.80;61.70;;;;;;5071847;28;20008;-37
2023/04/06 03:23:59;;;;;;;;;;;5.80;61.60;;;;;;5071944;28;19919;-39
2023/04/06 03:26:24;;;;;;;;;;;5.80;61.60;;;;;;5072016;28;19936;-38
2023/04/06 03:28:50;;;;;;;;;;;5.90;61.60;;;;;;5071788;28;19939;-39
2023/04/06 03:31:15;;;;;;;;;;;5.90;61.60;;;;;;5071607;28;19912;-39
2023/04/06 03:33:41;;;;;;;;;;;5.90;61.60;;;;;;5070449;28;20418;-43
2023/04/06 03:36:06;;;;;;;;;;;5.90;61.60;;;;;;5071697;28;19963;-38
2023/04/06 03:38:32;;;;;;;;;;;5.90;61.60;;;;;;5071628;28;19958;-39
2023/04/06 03:40:57;;;;;;;;;;;5.90;61.60;;;;;;5071635;28;19915;-38
2023/04/06 03:43:23;;;;;;;;;;;6.00;61.60;;;;;;5071765;28;20382;-38
2023/04/06 03:45:48;;;;;;;;;;;6.00;61.60;;;;;;5071483;28;19909;-39
2023/04/06 03:48:14;;;;;;;;;;;6.00;61.60;;;;;;5071554;28;19909;-37
2023/04/06 03:50:39;;;;;;;;;;;6.00;61.60;;;;;;5071595;28;19920;-40
2023/04/06 03:53:05;;;;;;;;;;;6.00;61.60;;;;;;5071515;28;20284;-37
2023/04/06 03:55:30;;;;;;;;;;;6.00;61.70;;;;;;5071641;28;19912;-39
2023/04/06 03:57:56;;;;;;;;;;;6.00;61.70;;;;;;5071445;28;19908;-36
2023/04/06 04:00:21;;;;;;;;;;;6.00;61.70;;;;;;5071463;28;19912;-39
2023/04/06 04:02:47;;;;;;;;;;;6.00;61.70;;;;;;5071734;28;20356;-38
2023/04/06 04:05:12;;;;;;;;;;;6.00;61.70;;;;;;5071513;28;19915;-38
2023/04/06 04:07:38;;;;;;;;;;;6.00;61.80;;;;;;5071817;28;20364;-40
2023/04/06 04:10:03;;;;;;;;;;;6.00;61.80;;;;;;5071335;28;19913;-37
2023/04/06 04:12:29;;;;;;;;;;;6.00;61.80;;;;;;5070081;28;20343;-39
2023/04/06 04:14:54;;;;;;;;;;;6.00;61.80;;;;;;5071468;28;19908;-37
2023/04/06 04:17:21;;;;;;;;;;;6.00;61.70;;;;;;5071658;28;20002;-39
2023/04/06 04:19:46;;;;;;;;;;;6.00;61.70;;;;;;5071291;28;20003;-37
2023/04/06 04:22:12;;;;;;;;;;;6.00;61.70;;;;;;5073154;28;20379;-38
2023/04/06 04:24:37;;;;;;;;;;;6.00;61.70;;;;;;5074814;28;19924;-37
2023/04/06 04:27:04;;;;;;;;;;;6.10;61.70;;;;;;5075315;28;19908;-37
2023/04/06 04:29:30;;;;;;;;;;;6.10;61.70;;;;;;5075313;28;20291;-40
2023/04/06 04:31:55;;;;;;;;;;;6.10;61.80;;;;;;5074753;28;19912;-37
2023/04/06 04:34:23;;;;;;;;;;;6.10;61.70;;;;;;5075050;28;19976;-40
2023/04/06 04:36:49;;;;;;;;;;;6.10;61.70;;;;;;5075011;28;19912;-39
2023/04/06 04:39:14;;;;;;;;;;;6.10;61.70;;;;;;5074818;28;19961;-37
2023/04/06 04:41:40;;;;;;;;;;;6.10;61.70;;;;;;5074970;28;19908;-40
2023/04/06 04:44:05;;;;;;;;;;;6.10;61.70;;;;;;5074996;28;19916;-36
2023/04/06 04:46:31;;;;;;;;;;;6.10;61.70;;;;;;5074771;28;20003;-40
2023/04/06 04:48:56;;;;;;;;;;;6.10;61.70;;;;;;5074982;28;19909;-39
2023/04/06 04:51:22;;;;;;;;;;;6.10;61.70;;;;;;5074868;28;19912;-40
2023/04/06 04:53:47;;;;;;;;;;;6.10;61.70;;;;;;5074331;28;19909;-41
2023/04/06 04:56:13;;;;;;;;;;;6.10;61.70;;;;;;5074634;28;19915;-39
2023/04/06 04:58:38;;;;;;;;;;;6.10;61.70;;;;;;5074744;28;20278;-39
2023/04/06 05:01:04;;;;;;;;;;;6.10;61.70;;;;;;5074337;28;19919;-39
2023/04/06 05:03:29;;;;;;;;;;;6.10;61.70;;;;;;5074192;28;19977;-39
2023/04/06 05:05:55;;;;;;;;;;;6.10;61.70;;;;;;5074331;28;20416;-39
2023/04/06 05:08:21;;;;;;;;;;;6.10;61.70;;;;;;5074733;28;19960;-39
2023/04/06 05:10:47;;;;;;;;;;;6.10;61.70;;;;;;5074021;28;20368;-40
2023/04/06 05:13:13;;;;;;;;;;;6.10;61.80;;;;;;5074211;28;19908;-38
2023/04/06 05:15:40;;;;;;;;;;;6.10;61.80;;;;;;5074124;28;19908;-39
2023/04/06 05:18:05;;;;;;;;;;;6.10;61.80;;;;;;5074363;28;19908;-37
2023/04/06 05:20:31;;;;;;;;;;;6.10;61.90;;;;;;5074393;28;19947;-40
2023/04/06 05:22:56;;;;;;;;;;;6.10;61.80;;;;;;5074026;28;20359;-38
2023/04/06 05:25:22;;;;;;;;;;;6.10;61.80;;;;;;5073919;28;20084;-39
2023/04/06 05:27:50;;;;;;;;;;;6.10;61.80;;;;;;5073385;28;20387;-38
2023/04/06 05:30:15;;;;;;;;;;;6.00;61.80;;;;;;5073801;28;20338;-37
2023/04/06 05:32:42;;;;;;;;;;;6.10;61.90;;;;;;5073419;28;19998;-41
2023/04/06 05:35:08;;;;;;;;;;;6.10;61.90;;;;;;5073936;28;19908;-38
2023/04/06 05:37:33;;;;;;;;;;;6.10;61.90;;;;;;5073697;28;19916;-38
2023/04/06 05:39:59;;;;;;;;;;;6.10;61.90;;;;;;5074137;28;20003;-39
2023/04/06 05:42:25;;;;;;;;;;;6.20;61.90;;;;;;5073900;28;19908;-38
2023/04/06 05:44:50;;;;;;;;;;;6.20;61.90;;;;;;5073838;28;19912;-40
2023/04/06 05:47:16;;;;;;;;;;;6.30;61.80;;;;;;5073737;28;20359;-38
2023/04/06 05:49:42;;;;;;;;;;;6.30;61.80;;;;;;5073910;28;20016;-40
2023/04/06 05:52:08;;;;;;;;;;;6.30;61.80;;;;;;5073782;28;19912;-37
2023/04/06 05:54:35;;;;;;;;;;;6.40;61.80;;;;;;5073841;28;19916;-39
2023/04/06 05:57:01;;;;;;;;;;;6.50;61.70;;;;;;5073782;28;19912;-39
2023/04/06 05:59:27;;;;;;;;;;;6.50;61.60;;;;;;5073913;28;20383;-39
2023/04/06 06:01:52;;;;;;;;;;;6.60;61.60;;;;;;5073225;28;19909;-38
2023/04/06 06:04:18;;;;;;;;;;;6.70;61.50;;;;;;5073161;28;19908;-37
2023/04/06 06:06:43;;;;;;;;;;;6.70;62.10;;;;;;5073031;28;20003;-40
2023/04/06 06:09:09;;;;;;;;;;;6.80;61.50;;;;;;5072870;28;19924;-38
2023/04/06 06:11:34;;;;;;;;;;;6.80;61.40;;;;;;5073206;28;20390;-46
2023/04/06 06:14:00;;;;;;;;;;;6.80;61.40;;;;;;5072979;28;19909;-38
2023/04/06 06:16:25;;;;;;;;;;;6.80;61.40;;;;;;5073005;28;19939;-38
2023/04/06 06:18:51;;;;;;;;;;;6.90;61.30;;;;;;5072790;28;20003;-39
2023/04/06 06:21:16;;;;;;;;;;;7.00;61.20;;;;;;5072726;28;19909;-39
2023/04/06 06:23:42;;;;;;;;;;;7.00;61.10;;;;;;5072700;28;20027;-38
2023/04/06 06:26:08;;;;;;;;;;;7.10;61.40;;;;;;5072611;28;19969;-38
2023/04/06 06:28:33;;;;;;;;;;;7.20;61.30;;;;;;5072765;28;20412;-38
2023/04/06 06:30:59;;;;;;;;;;;7.20;61.10;;;;;;5072468;28;19943;-38
2023/04/06 06:33:26;;;;;;;;;;;7.20;61.20;;;;;;5072770;28;19919;-37
2023/04/06 06:35:51;;;;;;;;;;;7.30;61.10;;;;;;5072822;28;20356;-39
2023/04/06 06:38:17;;;;;;;;;;;7.40;61.00;;;;;;5072547;28;20012;-31
2023/04/06 06:40:42;;;;;;;;;;;7.50;60.90;;;;;;5072327;28;20303;-30
2023/04/06 06:43:08;;;;;;;;;;;7.60;61.00;;;;;;5072403;28;19952;-30
2023/04/06 06:45:34;;;;;;;;;;;7.70;60.80;;;;;;5071547;28;19912;-28
2023/04/06 06:47:59;;;;;;;;;;;7.70;60.60;;;;;;5072206;28;19924;-31
2023/04/06 06:50:25;;;;;;;;;;;7.90;60.50;;;;;;5072261;28;20380;-30
2023/04/06 06:52:50;;;;;;;;;;;7.90;60.30;;;;;;5070820;28;19919;-29
2023/04/06 06:55:16;;;;;;;;;;;8.00;60.40;;;;;;5072106;28;19920;-30
2023/04/06 06:57:42;;;;;;;;;;;8.10;60.30;;;;;;5072048;28;20367;-29
2023/04/06 07:00:08;;;;;;;;;;;8.20;60.10;;;;;;5072232;28;19912;-30
2023/04/06 07:02:35;;;;;;;;;;;8.30;60.10;;;;;;5072170;28;19912;-29
2023/04/06 07:05:01;;;;;;;;;;;8.40;60.00;;;;;;5072044;28;19912;-31
2023/04/06 07:07:26;;;;;;;;;;;8.50;59.80;;;;;;5072211;28;19913;-30
2023/04/06 07:09:52;;;;;;;;;;;8.50;59.80;;;;;;5072018;28;19919;-28
2023/04/06 07:12:17;;;;;;;;;;;8.50;59.70;;;;;;5071921;28;20376;-29
2023/04/06 07:14:43;;;;;;;;;;;8.60;59.60;;;;;;5071981;28;19913;-30
2023/04/06 07:17:10;;;;;;;;;;;8.70;59.60;;;;;;5072140;28;19912;-29
2023/04/06 07:19:35;;;;;;;;;;;8.70;59.60;;;;;;5071971;28;19920;-31
2023/04/06 07:22:02;;;;;;;;;;;8.80;59.60;;;;;;5072221;28;19913;-29
2023/04/06 07:24:27;;;;;;;;;;;8.80;59.50;;;;;;5071773;28;19916;-29
2023/04/06 07:26:53;;;;;;;;;;;8.90;59.50;;;;;;5071863;28;19938;-28
2023/04/06 07:29:18;;;;;;;;;;;9.00;59.30;;;;;;5071859;28;19920;-29
2023/04/06 07:31:44;;;;;;;;;;;9.00;59.30;;;;;;5072170;28;19983;-33
2023/04/06 07:34:10;;;;;;;;;;;9.10;59.20;;;;;;5071929;28;19917;-30
2023/04/06 07:36:35;;;;;;;;;;;9.20;59.10;;;;;;5071957;28;19919;-30
2023/04/06 07:39:01;;;;;;;;;;;9.30;59.00;;;;;;5071580;28;19919;-30
2023/04/06 07:41:27;;;;;;;;;;;9.40;59.10;;;;;;5071445;28;20291;-30
2023/04/06 07:43:52;;;;;;;;;;;9.40;59.00;;;;;;5071706;28;20283;-29
2023/04/06 07:46:18;;;;;;;;;;;9.50;58.90;;;;;;5071775;28;20376;-29
2023/04/06 07:48:43;;;;;;;;;;;9.60;58.70;;;;;;5071767;28;20003;-30
2023/04/06 07:51:13;;;;;;;;;;;9.70;59.50;;;;;;5071995;28;19917;-38
2023/04/06 07:53:39;;;;;;;;;;;9.70;61.50;;;;;;5071679;28;19923;-30
2023/04/06 07:56:05;;;;;;;;;;;9.60;61.70;;;;;;5073459;28;19912;-28
2023/04/06 07:58:30;;;;;;;;;;;9.60;61.10;;;;;;5075751;28;19919;-30
2023/04/06 08:00:57;;;;;;;;;;;9.60;62.30;;;;;;5075605;28;20579;-29
2023/04/06 08:03:25;;;;;;;;;;;9.70;62.70;;;;;;5075389;28;19917;-29
2023/04/06 08:05:52;;;;;;;;;;;9.60;62.00;;;;;;5075608;28;20391;-30
2023/04/06 08:08:17;;;;;;;;;;;9.60;61.70;;;;;;5075707;28;19919;-35
2023/04/06 08:10:43;;;;;;;;;;;9.60;61.40;;;;;;5075228;28;20417;-32
2023/04/06 08:13:08;;;;;;;;;;;9.60;62.00;;;;;;5075143;28;20003;-31
2023/04/06 08:15:34;;;;;;;;;;;9.60;61.80;;;;;;5075799;28;19912;-30
2023/04/06 08:18:00;;;;;;;;;;;9.70;61.90;;;;;;5074969;28;19917;-29
2023/04/06 08:20:25;;;;;;;;;;;9.70;61.90;;;;;;5074952;28;19966;-28
2023/04/06 08:22:51;;;;;;;;;;;9.70;62.20;;;;;;5072487;28;19913;-30
2023/04/06 08:25:16;;;;;;;;;;;9.70;62.20;;;;;;5073487;28;19927;-29
2023/04/06 08:27:42;;;;;;;;;;;9.80;61.80;;;;;;5074681;28;20399;-29
2023/04/06 08:30:07;;;;;;;;;;;9.90;61.80;;;;;;5075033;28;19927;-29
2023/04/06 08:32:33;;;;;;;;;;;9.90;61.40;;;;;;5075064;28;19920;-28
2023/04/06 08:34:58;;;;;;;;;;;10.10;61.30;;;;;;5074813;28;19913;-30
2023/04/06 08:37:24;;;;;;;;;;;10.10;63.10;;;;;;5074851;28;19920;-27
2023/04/06 08:39:50;;;;;;;;;;;10.20;64.90;;;;;;5074922;28;19924;-33
2023/04/06 08:42:18;;;;;;;;;;;10.20;64.50;;;;;;5074926;28;19913;-32
2023/04/06 08:44:45;;;;;;;;;;;10.20;64.00;;;;;;5075270;28;19940;-30
2023/04/06 08:47:11;;;;;;;;;;;10.30;63.50;;;;;;5074863;28;19959;-31
2023/04/06 08:49:37;;;;;;;;;;;10.40;63.40;;;;;;5074891;28;20340;-31
2023/04/06 08:52:04;;;;;;;;;;;10.40;65.90;;;;;;5074620;28;19968;-31
2023/04/06 08:54:30;;;;;;;;;;;10.40;66.70;;;;;;5074570;28;19916;-30
2023/04/06 08:56:56;;;;;;;;;;;10.40;66.50;;;;;;5074726;28;19919;-36
2023/04/06 08:59:23;;;;;;;;;;;10.50;67.70;;;;;;5074503;28;19912;-28
2023/04/06 09:01:49;;;;;;;;;;;10.50;68.70;;;;;;5074534;28;19920;-29
2023/04/06 09:04:14;;;;;;;;;;;10.60;68.60;;;;;;5074539;28;20039;-29
2023/04/06 09:06:40;;;;;;;;;;;10.60;69.20;;;;;;5074059;28;19951;-30
2023/04/06 09:09:06;;;;;;;;;;;10.70;68.50;;;;;;5074227;28;19913;-29
2023/04/06 09:12:05;;;;;;;;;;;10.70;68.70;;;;;;5074554;28;19939;-30
2023/04/06 09:14:35;;;;;;;;;;;10.80;68.00;;;;;;5073787;28;19913;-29
2023/04/06 09:17:01;;;;;;;;;;;10.90;67.20;;;;;;5074222;28;20393;-28
2023/04/06 09:19:26;;;;;;;;;;;11.10;66.00;;;;;;5074357;28;19913;-32
2023/04/06 09:22:01;;;;;;;;;;;11.10;65.40;;;;;;5074479;28;20441;-31
2023/04/06 09:24:26;;;;;;;;;;;11.30;65.60;;;;;;5073877;28;19924;-30
2023/04/06 09:26:52;;;;;;;;;;;11.40;65.20;;;;;;5074654;28;19912;-30
2023/04/06 09:29:26;;;;;;;;;;;11.40;65.90;;;;;;5073815;28;19920;-30
2023/04/06 09:31:51;;;;;;;;;;;11.50;66.30;;;;;;5073916;28;19917;-30
2023/04/06 09:34:21;;;;;;;;;;;11.60;67.20;;;;;;5073965;28;19913;-30
2023/04/06 09:36:46;;;;;;;;;;;11.60;66.90;;;;;;5074222;28;19995;-33
2023/04/06 09:39:12;;;;;;;;;;;11.60;66.10;;;;;;5073680;28;19959;-31
2023/04/06 09:41:39;;;;;;;;;;;11.70;65.40;;;;;;5073732;28;19913;-35
2023/04/06 09:44:06;;;;;;;;;;;11.80;64.90;;;;;;5073673;28;19912;-29
2023/04/06 09:46:33;;;;;;;;;;;11.80;64.80;;;;;;5073550;28;19912;-30
2023/04/06 09:48:59;;;;;;;;;;;11.90;64.00;;;;;;5073682;28;19920;-29
2023/04/06 09:51:26;;;;;;;;;;;12.00;63.80;;;;;;5073872;28;19963;-33
2023/04/06 09:53:57;;;;;;;;;;;12.10;63.40;;;;;;5073585;28;19912;-33
2023/04/06 09:56:25;;;;;;;;;;;12.10;63.30;;;;;;5073698;28;19917;-29
2023/04/06 09:58:53;;;;;;;;;;;12.30;62.90;;;;;;5073297;28;19913;-33
2023/04/06 10:01:20;;;;;;;;;;;12.40;62.60;;;;;;5073338;28;19913;-31
2023/04/06 10:03:46;;;;;;;;;;;12.50;62.00;;;;;;5073667;28;20371;-29
2023/04/06 10:06:12;;;;;;;;;;;12.50;61.80;;;;;;5073094;28;19913;-30
2023/04/06 10:08:40;;;;;;;;;;;12.60;62.10;;;;;;5073405;28;19973;-30
2023/04/06 10:11:06;;;;;;;;;;;12.70;61.70;;;;;;5073453;28;19916;-31
2023/04/06 10:13:31;;;;;;;;;;;12.70;61.00;;;;;;5073413;28;19912;-29
2023/04/06 10:15:57;;;;;;;;;;;12.80;60.90;;;;;;5073336;28;20231;-32
2023/04/06 10:18:22;;;;;;;;;;;12.90;60.60;;;;;;5073221;28;19917;-29
2023/04/06 10:20:55;;;;;;;;;;;13.00;60.10;;;;;;5072719;28;19981;-29
2023/04/06 10:23:24;;;;;;;;;;;13.00;59.60;;;;;;5072923;28;19963;-29
2023/04/06 10:25:53;;;;;;;;;;;12.90;58.50;;;;;;5072615;28;20007;-29
2023/04/06 10:28:19;;;;;;;;;;;12.90;56.30;;;;;;5072679;28;19958;-29
2023/04/06 10:30:45;;;;;;;;;;;12.80;56.60;;;;;;5072961;28;19920;-36
2023/04/06 10:33:18;;;;;;;;;;;12.80;56.80;;;;;;5072473;28;20343;-36
2023/04/06 10:35:43;;;;;;;;;;;12.70;56.60;;;;;;5072694;28;19966;-30
2023/04/06 10:38:09;;;;;;;;;;;12.70;56.80;;;;;;5072652;28;20354;-31
2023/04/06 10:40:36;;;;;;;;;;;12.70;57.30;;;;;;5072709;28;20444;-34
2023/04/06 10:43:12;;;;;;;;;;;12.80;56.60;;;;;;5072520;28;19920;-31
2023/04/06 10:45:38;;;;;;;;;;;12.80;57.00;;;;;;5072870;28;19919;-29
2023/04/06 10:48:17;;;;;;;;;;;12.80;57.00;;;;;;5071235;28;20380;-31
2023/04/06 10:50:47;;;;;;;;;;;12.90;56.80;;;;;;5072607;28;19924;-30
2023/04/06 10:53:20;;;;;;;;;;;12.80;56.50;;;;;;5072367;28;19912;-29
2023/04/06 10:55:46;;;;;;;;;;;12.90;56.70;;;;;;5072634;28;19917;-29
2023/04/06 10:58:12;;;;;;;;;;;12.90;56.70;;;;;;5072201;28;19916;-32
2023/04/06 11:00:43;;;;;;;;;;;13.00;55.80;;;;;;5072275;28;19966;-37
2023/04/06 11:03:08;;;;;;;;;;;13.10;56.30;;;;;;5072207;28;19912;-30
2023/04/06 11:05:35;;;;;;;;;;;13.20;56.10;;;;;;5072268;28;20265;-34
2023/04/06 11:08:00;;;;;;;;;;;13.30;55.90;;;;;;5072171;28;19965;-32
2023/04/06 11:10:26;;;;;;;;;;;13.30;55.60;;;;;;5071993;28;19916;-29
2023/04/06 11:12:53;;;;;;;;;;;13.30;55.50;;;;;;5071954;28;19935;-32
2023/04/06 11:15:18;;;;;;;;;;;13.30;55.50;;;;;;5072272;28;19920;-30
2023/04/06 11:17:45;;;;;;;;;;;13.30;55.50;;;;;;5070774;28;20276;-30
2023/04/06 11:20:11;;;;;;;;;;;13.30;55.60;;;;;;5072297;28;19912;-30
2023/04/06 11:22:47;;;;;;;;;;;13.30;56.10;;;;;;5072366;28;20372;-34
2023/04/06 11:25:13;;;;;;;;;;;13.30;56.20;;;;;;5071905;28;19921;-32
2023/04/06 11:27:39;;;;;;;;;;;13.30;56.30;;;;;;5072150;28;19923;-30
2023/04/06 11:30:05;;;;;;;;;;;13.40;56.20;;;;;;5071778;28;20333;-30
2023/04/06 11:32:39;;;;;;;;;;;13.40;56.30;;;;;;5072060;28;19966;-30
2023/04/06 11:35:05;;;;;;;;;;;13.50;56.30;;;;;;5071932;28;19912;-29
2023/04/06 11:37:31;;;;;;;;;;;13.50;56.00;;;;;;5071764;28;20007;-37
2023/04/06 11:39:57;;;;;;;;;;;13.50;55.80;;;;;;5071788;28;19986;-34
2023/04/06 11:42:27;;;;;;;;;;;13.50;55.80;;;;;;5071805;28;20390;-30
2023/04/06 11:44:58;;;;;;;;;;;13.50;55.90;;;;;;5071746;28;19913;-32
2023/04/06 11:47:28;;;;;;;;;;;13.50;56.00;;;;;;5071762;28;19999;-30
2023/04/06 11:49:53;;;;;;;;;;;13.40;56.30;;;;;;5071972;28;20261;-30
2023/04/06 11:52:23;;;;;;;;;;;13.30;56.70;;;;;;5071454;28;20027;-29
2023/04/06 11:54:49;;;;;;;;;;;13.20;57.10;;;;;;5071657;28;20446;-33
2023/04/06 11:57:16;;;;;;;;;;;13.00;57.70;;;;;;5071531;28;19912;-29
2023/04/06 11:59:42;;;;;;;;;;;12.90;58.10;;;;;;5071518;28;19978;-28
2023/04/06 12:02:07;;;;;;;;;;;12.80;58.40;;;;;;5071811;28;19913;-30
2023/04/06 12:04:33;;;;;;;;;;;12.80;59.50;;;;;;5071541;28;19965;-44
2023/04/06 12:06:59;;;;;;;;;;;12.70;59.70;;;;;;5071525;28;19912;-30
2023/04/06 12:09:24;;;;;;;;;;;12.60;60.50;;;;;;5071500;28;20265;-34
2023/04/06 12:11:50;;;;;;;;;;;12.50;61.50;;;;;;5071693;28;19932;-30
2023/04/06 12:14:16;;;;;;;;;;;12.40;61.20;;;;;;5071395;28;20508;-30
2023/04/06 12:16:42;;;;;;;;;;;12.40;61.50;;;;;;5071180;28;19913;-33
2023/04/06 12:19:07;;;;;;;;;;;12.30;61.80;;;;;;5071281;28;19931;-32
2023/04/06 12:21:35;;;;;;;;;;;12.30;62.10;;;;;;5071057;28;19938;-40
2023/04/06 12:24:00;;;;;;;;;;;12.30;62.20;;;;;;5070098;28;19916;-37
2023/04/06 12:26:28;;;;;;;;;;;12.20;62.30;;;;;;5070945;28;19928;-30
2023/04/06 12:28:53;;;;;;;;;;;12.10;62.50;;;;;;5071090;28;19912;-30
2023/04/06 12:31:19;;;;;;;;;;;12.20;62.80;;;;;;5069787;28;20093;-31
2023/04/06 12:33:51;;;;;;;;;;;12.10;63.20;;;;;;5069777;28;19931;-31
2023/04/06 12:36:18;;;;;;;;;;;12.00;63.50;;;;;;5071160;28;19912;-34
2023/04/06 12:38:45;;;;;;;;;;;12.00;63.50;;;;;;5071107;28;19920;-30
2023/04/06 12:41:11;;;;;;;;;;;11.90;64.00;;;;;;5071046;28;19923;-31
2023/04/06 12:43:36;;;;;;;;;;;11.80;64.60;;;;;;5073361;28;20015;-30
2023/04/06 12:46:02;;;;;;;;;;;11.80;64.90;;;;;;5074561;28;20004;-29
2023/04/06 12:48:27;;;;;;;;;;;11.70;65.60;;;;;;5074578;28;19912;-29
2023/04/06 12:51:01;;;;;;;;;;;11.60;65.40;;;;;;5074370;28;20343;-32
2023/04/06 12:53:26;;;;;;;;;;;11.60;65.90;;;;;;5074507;28;19912;-29
2023/04/06 12:55:53;;;;;;;;;;;11.50;68.80;;;;;;5074662;28;20387;-30
2023/04/06 12:58:19;;;;;;;;;;;11.40;69.00;;;;;;5074486;28;19919;-29
2023/04/06 13:00:45;;;;;;;;;;;11.20;69.10;;;;;;5074430;28;20283;-30
2023/04/06 13:03:10;;;;;;;;;;;11.20;69.00;;;;;;5073012;28;20391;-30
2023/04/06 13:05:36;;;;;;;;;;;11.10;69.30;;;;;;5074317;28;19912;-30
2023/04/06 13:08:01;;;;;;;;;;;11.10;68.60;;;;;;5074250;28;19912;-35
2023/04/06 13:10:27;;;;;;;;;;;11.10;68.50;;;;;;5074199;28;19948;-30
2023/04/06 13:12:53;;;;;;;;;;;11.10;68.60;;;;;;5074256;28;19913;-31
2023/04/06 13:15:18;;;;;;;;;;;11.10;69.20;;;;;;5074244;28;20159;-29
2023/04/06 13:17:44;;;;;;;;;;;11.00;69.50;;;;;;5074148;28;19913;-29
2023/04/06 13:20:09;;;;;;;;;;;11.00;69.30;;;;;;5074076;28;19916;-32
2023/04/06 13:22:35;;;;;;;;;;;11.00;69.40;;;;;;5074342;28;20280;-33
2023/04/06 13:25:01;;;;;;;;;;;11.00;70.10;;;;;;5073879;28;19920;-28
2023/04/06 13:27:27;;;;;;;;;;;11.00;70.30;;;;;;5074017;28;19912;-29
2023/04/06 13:29:53;;;;;;;;;;;10.90;70.50;;;;;;5073883;28;19919;-28
2023/04/06 13:32:18;;;;;;;;;;;10.90;71.20;;;;;;5073819;28;19916;-34
2023/04/06 13:34:44;;;;;;;;;;;10.80;71.00;;;;;;5073810;28;19974;-30
2023/04/06 13:37:13;;;;;;;;;;;10.80;71.50;;;;;;5073865;28;20007;-29
2023/04/06 13:39:39;;;;;;;;;;;10.70;71.90;;;;;;5073499;28;19912;-30
2023/04/06 13:42:04;;;;;;;;;;;10.70;72.20;;;;;;5073743;28;20360;-31
2023/04/06 13:44:30;;;;;;;;;;;10.70;72.20;;;;;;5073415;28;19965;-34
2023/04/06 13:46:56;;;;;;;;;;;10.70;72.50;;;;;;5072084;28;20252;-29
2023/04/06 13:49:22;;;;;;;;;;;10.60;72.70;;;;;;5073776;28;19916;-31
2023/04/06 13:51:47;;;;;;;;;;;10.60;73.40;;;;;;5073394;28;19916;-29
2023/04/06 13:54:13;;;;;;;;;;;10.50;73.40;;;;;;5073018;28;19920;-28
2023/04/06 13:56:38;;;;;;;;;;;10.50;73.10;;;;;;5073286;28;20261;-29
2023/04/06 13:59:04;;;;;;;;;;;10.50;73.10;;;;;;5073531;28;20005;-29
2023/04/06 14:01:29;;;;;;;;;;;10.50;73.90;;;;;;5073556;28;20395;-29
2023/04/06 14:03:55;;;;;;;;;;;10.50;75.30;;;;;;5073236;28;19912;-30
2023/04/06 14:06:20;;;;;;;;;;;10.40;75.30;;;;;;5073133;28;19935;-29
2023/04/06 14:08:46;;;;;;;;;;;10.40;75.40;;;;;;5073183;28;19913;-29
2023/04/06 14:11:12;;;;;;;;;;;10.40;75.10;;;;;;5072936;28;19917;-30
2023/04/06 14:13:38;;;;;;;;;;;10.50;75.30;;;;;;5072861;28;19952;-30
2023/04/06 14:16:04;;;;;;;;;;;10.50;76.10;;;;;;5072950;28;19912;-30
2023/04/06 14:18:30;;;;;;;;;;;10.40;76.10;;;;;;5072913;28;19923;-29